sensor_id;sensor_type;location;lat;lon;timestamp;P1;durP1;ratioP1;P2;durP2;ratioP2
48052;SDS011;33824;51.600;5.718;2023-07-13T00:02:21;3.92;;;2.60;;
48052;SDS011;33824;51.600;5.718;2023-07-13T00:04:47;3.63;;;2.10;;
48052;SDS011;33824;51.600;5.718;2023-07-13T00:07:13;3.65;;;2.28;;
48052;SDS011;33824;51.600;5.718;2023-07-13T00:09:39;3.10;;;2.08;;
48052;SDS011;33824;51.600;5.718;2023-07-13T00:12:19;3.42;;;2.13;;
48052;SDS011;33824;51.600;5.718;2023-07-13T00:14:48;2.22;;;1.95;;
48052;SDS011;33824;51.600;5.718;2023-07-13T00:17:15;4.43;;;2.13;;
48052;SDS011;33824;51.600;5.718;2023-07-13T00:19:41;5.68;;;2.22;;
48052;SDS011;33824;51.600;5.718;2023-07-13T00:22:06;2.55;;;1.80;;
48052;SDS011;33824;51.600;5.718;2023-07-13T00:24:32;5.40;;;1.70;;
48052;SDS011;33824;51.600;5.718;2023-07-13T00:26:58;4.00;;;2.10;;
48052;SDS011;33824;51.600;5.718;2023-07-13T00:29:25;7.88;;;2.28;;
48052;SDS011;33824;51.600;5.718;2023-07-13T00:31:51;2.10;;;1.88;;
48052;SDS011;33824;51.600;5.718;2023-07-13T00:34:17;5.47;;;2.17;;
48052;SDS011;33824;51.600;5.718;2023-07-13T00:36:42;4.78;;;2.05;;
48052;SDS011;33824;51.600;5.718;2023-07-13T00:39:08;6.95;;;2.50;;
48052;SDS011;33824;51.600;5.718;2023-07-13T00:41:34;3.85;;;1.88;;
48052;SDS011;33824;51.600;5.718;2023-07-13T00:43:59;6.05;;;2.55;;
48052;SDS011;33824;51.600;5.718;2023-07-13T00:46:27;3.33;;;1.88;;
48052;SDS011;33824;51.600;5.718;2023-07-13T00:48:55;3.22;;;2.30;;
48052;SDS011;33824;51.600;5.718;2023-07-13T00:51:34;2.85;;;2.05;;
48052;SDS011;33824;51.600;5.718;2023-07-13T00:54:05;3.25;;;2.17;;
48052;SDS011;33824;51.600;5.718;2023-07-13T00:56:35;3.53;;;1.85;;
48052;SDS011;33824;51.600;5.718;2023-07-13T00:59:02;2.45;;;2.00;;
48052;SDS011;33824;51.600;5.718;2023-07-13T01:01:31;2.53;;;1.98;;
48052;SDS011;33824;51.600;5.718;2023-07-13T01:03:56;6.35;;;1.95;;
48052;SDS011;33824;51.600;5.718;2023-07-13T01:06:22;3.30;;;1.95;;
48052;SDS011;33824;51.600;5.718;2023-07-13T01:08:47;2.40;;;2.10;;
48052;SDS011;33824;51.600;5.718;2023-07-13T01:11:18;2.83;;;2.38;;
48052;SDS011;33824;51.600;5.718;2023-07-13T01:13:46;4.75;;;2.13;;
48052;SDS011;33824;51.600;5.718;2023-07-13T01:16:18;5.15;;;2.05;;
48052;SDS011;33824;51.600;5.718;2023-07-13T01:18:49;1.95;;;1.77;;
48052;SDS011;33824;51.600;5.718;2023-07-13T01:21:14;5.03;;;1.95;;
48052;SDS011;33824;51.600;5.718;2023-07-13T01:23:41;3.60;;;1.90;;
48052;SDS011;33824;51.600;5.718;2023-07-13T01:26:06;8.65;;;3.45;;
48052;SDS011;33824;51.600;5.718;2023-07-13T01:28:32;3.05;;;2.00;;
48052;SDS011;33824;51.600;5.718;2023-07-13T01:31:02;2.35;;;1.63;;
48052;SDS011;33824;51.600;5.718;2023-07-13T01:33:28;1.80;;;1.70;;
48052;SDS011;33824;51.600;5.718;2023-07-13T01:35:54;3.78;;;2.10;;
48052;SDS011;33824;51.600;5.718;2023-07-13T01:38:22;4.88;;;2.30;;
48052;SDS011;33824;51.600;5.718;2023-07-13T01:40:50;3.35;;;2.10;;
48052;SDS011;33824;51.600;5.718;2023-07-13T01:43:16;4.40;;;1.85;;
48052;SDS011;33824;51.600;5.718;2023-07-13T01:45:42;4.10;;;2.00;;
48052;SDS011;33824;51.600;5.718;2023-07-13T01:48:09;2.63;;;2.00;;
48052;SDS011;33824;51.600;5.718;2023-07-13T01:50:35;6.70;;;2.60;;
48052;SDS011;33824;51.600;5.718;2023-07-13T01:53:01;4.72;;;2.38;;
48052;SDS011;33824;51.600;5.718;2023-07-13T01:55:27;2.47;;;1.83;;
48052;SDS011;33824;51.600;5.718;2023-07-13T01:57:53;7.55;;;2.50;;
48052;SDS011;33824;51.600;5.718;2023-07-13T02:00:19;2.50;;;2.00;;
48052;SDS011;33824;51.600;5.718;2023-07-13T02:02:44;4.82;;;2.13;;
48052;SDS011;33824;51.600;5.718;2023-07-13T02:05:11;7.53;;;2.20;;
48052;SDS011;33824;51.600;5.718;2023-07-13T02:07:37;4.95;;;2.38;;
48052;SDS011;33824;51.600;5.718;2023-07-13T02:10:05;1.83;;;1.73;;
48052;SDS011;33824;51.600;5.718;2023-07-13T02:12:32;5.28;;;2.40;;
48052;SDS011;33824;51.600;5.718;2023-07-13T02:14:58;11.45;;;2.47;;
48052;SDS011;33824;51.600;5.718;2023-07-13T02:17:24;3.42;;;2.28;;
48052;SDS011;33824;51.600;5.718;2023-07-13T02:19:54;4.88;;;2.40;;
48052;SDS011;33824;51.600;5.718;2023-07-13T02:22:20;3.17;;;2.20;;
48052;SDS011;33824;51.600;5.718;2023-07-13T02:24:47;3.10;;;2.13;;
48052;SDS011;33824;51.600;5.718;2023-07-13T02:27:13;2.38;;;1.95;;
48052;SDS011;33824;51.600;5.718;2023-07-13T02:29:38;4.28;;;2.25;;
48052;SDS011;33824;51.600;5.718;2023-07-13T02:32:04;4.38;;;2.03;;
48052;SDS011;33824;51.600;5.718;2023-07-13T02:34:30;2.63;;;1.92;;
48052;SDS011;33824;51.600;5.718;2023-07-13T02:36:58;2.80;;;2.05;;
48052;SDS011;33824;51.600;5.718;2023-07-13T02:39:24;2.28;;;1.83;;
48052;SDS011;33824;51.600;5.718;2023-07-13T02:41:49;5.30;;;2.13;;
48052;SDS011;33824;51.600;5.718;2023-07-13T02:44:15;6.57;;;2.38;;
48052;SDS011;33824;51.600;5.718;2023-07-13T02:46:41;5.60;;;2.40;;
48052;SDS011;33824;51.600;5.718;2023-07-13T02:49:06;7.43;;;2.13;;
48052;SDS011;33824;51.600;5.718;2023-07-13T02:51:32;4.75;;;2.25;;
48052;SDS011;33824;51.600;5.718;2023-07-13T02:54:02;3.78;;;2.40;;
48052;SDS011;33824;51.600;5.718;2023-07-13T02:56:28;3.05;;;2.42;;
48052;SDS011;33824;51.600;5.718;2023-07-13T02:58:56;4.38;;;2.25;;
48052;SDS011;33824;51.600;5.718;2023-07-13T03:01:22;7.38;;;2.20;;
48052;SDS011;33824;51.600;5.718;2023-07-13T03:03:48;4.28;;;2.10;;
48052;SDS011;33824;51.600;5.718;2023-07-13T03:06:15;4.57;;;2.55;;
48052;SDS011;33824;51.600;5.718;2023-07-13T03:08:42;3.45;;;2.10;;
48052;SDS011;33824;51.600;5.718;2023-07-13T03:11:08;4.13;;;2.42;;
48052;SDS011;33824;51.600;5.718;2023-07-13T03:13:37;5.78;;;2.25;;
48052;SDS011;33824;51.600;5.718;2023-07-13T03:16:03;4.20;;;2.30;;
48052;SDS011;33824;51.600;5.718;2023-07-13T03:18:30;6.00;;;2.50;;
48052;SDS011;33824;51.600;5.718;2023-07-13T03:20:55;3.88;;;2.63;;
48052;SDS011;33824;51.600;5.718;2023-07-13T03:23:21;8.18;;;2.60;;
48052;SDS011;33824;51.600;5.718;2023-07-13T03:25:48;3.10;;;2.20;;
48052;SDS011;33824;51.600;5.718;2023-07-13T03:28:14;2.72;;;2.50;;
48052;SDS011;33824;51.600;5.718;2023-07-13T03:30:40;3.95;;;2.60;;
48052;SDS011;33824;51.600;5.718;2023-07-13T03:33:06;4.68;;;2.25;;
48052;SDS011;33824;51.600;5.718;2023-07-13T03:35:33;3.03;;;2.20;;
48052;SDS011;33824;51.600;5.718;2023-07-13T03:37:59;2.45;;;2.08;;
48052;SDS011;33824;51.600;5.718;2023-07-13T03:40:26;6.45;;;4.50;;
48052;SDS011;33824;51.600;5.718;2023-07-13T03:42:52;3.92;;;2.58;;
48052;SDS011;33824;51.600;5.718;2023-07-13T03:45:18;5.90;;;2.13;;
48052;SDS011;33824;51.600;5.718;2023-07-13T03:47:44;4.45;;;2.45;;
48052;SDS011;33824;51.600;5.718;2023-07-13T03:50:10;5.30;;;2.22;;
48052;SDS011;33824;51.600;5.718;2023-07-13T03:52:36;3.28;;;1.92;;
48052;SDS011;33824;51.600;5.718;2023-07-13T03:55:02;5.70;;;2.75;;
48052;SDS011;33824;51.600;5.718;2023-07-13T03:57:28;5.43;;;2.88;;
48052;SDS011;33824;51.600;5.718;2023-07-13T03:59:53;8.95;;;2.15;;
48052;SDS011;33824;51.600;5.718;2023-07-13T04:02:19;3.38;;;2.20;;
48052;SDS011;33824;51.600;5.718;2023-07-13T04:04:45;4.63;;;1.98;;
48052;SDS011;33824;51.600;5.718;2023-07-13T04:07:11;5.22;;;2.47;;
48052;SDS011;33824;51.600;5.718;2023-07-13T04:09:37;3.92;;;2.67;;
48052;SDS011;33824;51.600;5.718;2023-07-13T04:12:03;6.47;;;1.98;;
48052;SDS011;33824;51.600;5.718;2023-07-13T04:14:29;2.55;;;2.03;;
48052;SDS011;33824;51.600;5.718;2023-07-13T04:16:55;4.95;;;2.50;;
48052;SDS011;33824;51.600;5.718;2023-07-13T04:19:21;7.60;;;2.40;;
48052;SDS011;33824;51.600;5.718;2023-07-13T04:21:46;5.20;;;2.30;;
48052;SDS011;33824;51.600;5.718;2023-07-13T04:24:12;4.88;;;2.30;;
48052;SDS011;33824;51.600;5.718;2023-07-13T04:26:38;4.55;;;2.22;;
48052;SDS011;33824;51.600;5.718;2023-07-13T04:29:04;4.82;;;1.80;;
48052;SDS011;33824;51.600;5.718;2023-07-13T04:31:30;5.50;;;2.35;;
48052;SDS011;33824;51.600;5.718;2023-07-13T04:33:56;6.72;;;2.30;;
48052;SDS011;33824;51.600;5.718;2023-07-13T04:36:22;8.38;;;2.42;;
48052;SDS011;33824;51.600;5.718;2023-07-13T04:38:52;6.75;;;2.03;;
48052;SDS011;33824;51.600;5.718;2023-07-13T04:41:19;7.80;;;2.20;;
48052;SDS011;33824;51.600;5.718;2023-07-13T04:43:46;5.95;;;2.60;;
48052;SDS011;33824;51.600;5.718;2023-07-13T04:46:13;7.55;;;2.50;;
48052;SDS011;33824;51.600;5.718;2023-07-13T04:48:42;5.45;;;2.40;;
48052;SDS011;33824;51.600;5.718;2023-07-13T04:51:09;4.80;;;2.10;;
48052;SDS011;33824;51.600;5.718;2023-07-13T04:53:34;4.20;;;2.05;;
48052;SDS011;33824;51.600;5.718;2023-07-13T04:56:01;10.50;;;2.92;;
48052;SDS011;33824;51.600;5.718;2023-07-13T04:58:27;6.47;;;2.08;;
48052;SDS011;33824;51.600;5.718;2023-07-13T05:00:53;7.93;;;2.10;;
48052;SDS011;33824;51.600;5.718;2023-07-13T05:03:24;6.65;;;2.78;;
48052;SDS011;33824;51.600;5.718;2023-07-13T05:06:22;9.38;;;2.95;;
48052;SDS011;33824;51.600;5.718;2023-07-13T05:08:41;8.10;;;3.22;;
48052;SDS011;33824;51.600;5.718;2023-07-13T05:11:07;7.22;;;3.10;;
48052;SDS011;33824;51.600;5.718;2023-07-13T05:13:32;10.23;;;3.75;;
48052;SDS011;33824;51.600;5.718;2023-07-13T05:15:59;15.23;;;3.63;;
48052;SDS011;33824;51.600;5.718;2023-07-13T05:18:26;9.18;;;3.75;;
48052;SDS011;33824;51.600;5.718;2023-07-13T05:20:58;11.32;;;3.85;;
48052;SDS011;33824;51.600;5.718;2023-07-13T05:23:28;10.90;;;4.15;;
48052;SDS011;33824;51.600;5.718;2023-07-13T05:25:55;13.10;;;4.50;;
48052;SDS011;33824;51.600;5.718;2023-07-13T05:28:21;13.40;;;5.35;;
48052;SDS011;33824;51.600;5.718;2023-07-13T05:30:47;11.15;;;4.55;;
48052;SDS011;33824;51.600;5.718;2023-07-13T05:33:14;12.48;;;5.05;;
48052;SDS011;33824;51.600;5.718;2023-07-13T05:35:39;11.52;;;5.30;;
48052;SDS011;33824;51.600;5.718;2023-07-13T05:38:05;14.20;;;5.70;;
48052;SDS011;33824;51.600;5.718;2023-07-13T05:40:31;14.82;;;5.95;;
48052;SDS011;33824;51.600;5.718;2023-07-13T05:42:57;12.68;;;5.30;;
48052;SDS011;33824;51.600;5.718;2023-07-13T05:45:23;13.38;;;5.22;;
48052;SDS011;33824;51.600;5.718;2023-07-13T05:47:48;14.10;;;6.00;;
48052;SDS011;33824;51.600;5.718;2023-07-13T05:50:14;10.30;;;4.93;;
48052;SDS011;33824;51.600;5.718;2023-07-13T05:52:40;16.48;;;5.32;;
48052;SDS011;33824;51.600;5.718;2023-07-13T05:55:05;11.88;;;5.18;;
48052;SDS011;33824;51.600;5.718;2023-07-13T05:57:31;11.10;;;4.88;;
48052;SDS011;33824;51.600;5.718;2023-07-13T05:59:57;9.55;;;5.32;;
48052;SDS011;33824;51.600;5.718;2023-07-13T06:02:22;10.90;;;5.32;;
48052;SDS011;33824;51.600;5.718;2023-07-13T06:04:48;9.10;;;4.68;;
48052;SDS011;33824;51.600;5.718;2023-07-13T06:07:14;10.40;;;5.50;;
48052;SDS011;33824;51.600;5.718;2023-07-13T06:09:40;16.75;;;5.25;;
48052;SDS011;33824;51.600;5.718;2023-07-13T06:12:05;14.65;;;5.07;;
48052;SDS011;33824;51.600;5.718;2023-07-13T06:14:31;14.07;;;5.15;;
48052;SDS011;33824;51.600;5.718;2023-07-13T06:16:57;12.63;;;4.70;;
48052;SDS011;33824;51.600;5.718;2023-07-13T06:19:22;15.27;;;5.43;;
48052;SDS011;33824;51.600;5.718;2023-07-13T06:21:48;13.27;;;4.50;;
48052;SDS011;33824;51.600;5.718;2023-07-13T06:24:13;14.50;;;4.93;;
48052;SDS011;33824;51.600;5.718;2023-07-13T06:26:39;8.50;;;4.50;;
48052;SDS011;33824;51.600;5.718;2023-07-13T06:29:04;12.80;;;4.88;;
48052;SDS011;33824;51.600;5.718;2023-07-13T06:31:30;11.15;;;4.50;;
48052;SDS011;33824;51.600;5.718;2023-07-13T06:33:56;9.48;;;4.03;;
48052;SDS011;33824;51.600;5.718;2023-07-13T06:36:21;13.43;;;4.53;;
48052;SDS011;33824;51.600;5.718;2023-07-13T06:38:47;9.20;;;3.92;;
48052;SDS011;33824;51.600;5.718;2023-07-13T06:41:13;9.85;;;4.18;;
48052;SDS011;33824;51.600;5.718;2023-07-13T06:43:38;8.18;;;4.63;;
48052;SDS011;33824;51.600;5.718;2023-07-13T06:46:04;14.98;;;5.82;;
48052;SDS011;33824;51.600;5.718;2023-07-13T06:48:30;7.65;;;4.07;;
48052;SDS011;33824;51.600;5.718;2023-07-13T06:50:55;14.57;;;4.80;;
48052;SDS011;33824;51.600;5.718;2023-07-13T06:53:22;12.00;;;4.78;;
48052;SDS011;33824;51.600;5.718;2023-07-13T06:55:48;13.65;;;4.57;;
48052;SDS011;33824;51.600;5.718;2023-07-13T06:58:14;12.23;;;4.82;;
48052;SDS011;33824;51.600;5.718;2023-07-13T07:00:41;16.70;;;5.20;;
48052;SDS011;33824;51.600;5.718;2023-07-13T07:03:07;13.50;;;4.53;;
48052;SDS011;33824;51.600;5.718;2023-07-13T07:05:33;11.13;;;4.55;;
48052;SDS011;33824;51.600;5.718;2023-07-13T07:07:58;13.57;;;4.50;;
48052;SDS011;33824;51.600;5.718;2023-07-13T07:10:25;16.13;;;5.10;;
48052;SDS011;33824;51.600;5.718;2023-07-13T07:12:51;15.45;;;4.75;;
48052;SDS011;33824;51.600;5.718;2023-07-13T07:15:18;10.20;;;4.53;;
48052;SDS011;33824;51.600;5.718;2023-07-13T07:17:44;8.55;;;4.05;;
48052;SDS011;33824;51.600;5.718;2023-07-13T07:20:10;10.07;;;4.35;;
48052;SDS011;33824;51.600;5.718;2023-07-13T07:22:36;11.88;;;3.90;;
48052;SDS011;33824;51.600;5.718;2023-07-13T07:25:01;10.32;;;5.22;;
48052;SDS011;33824;51.600;5.718;2023-07-13T07:27:27;12.35;;;4.95;;
48052;SDS011;33824;51.600;5.718;2023-07-13T07:29:53;12.07;;;4.65;;
48052;SDS011;33824;51.600;5.718;2023-07-13T07:32:20;14.15;;;4.47;;
48052;SDS011;33824;51.600;5.718;2023-07-13T07:34:45;8.10;;;3.60;;
48052;SDS011;33824;51.600;5.718;2023-07-13T07:37:12;6.15;;;3.60;;
48052;SDS011;33824;51.600;5.718;2023-07-13T07:39:38;12.02;;;4.20;;
48052;SDS011;33824;51.600;5.718;2023-07-13T07:42:04;12.45;;;4.63;;
48052;SDS011;33824;51.600;5.718;2023-07-13T07:44:31;10.15;;;4.30;;
48052;SDS011;33824;51.600;5.718;2023-07-13T07:46:57;12.77;;;4.15;;
48052;SDS011;33824;51.600;5.718;2023-07-13T07:49:23;10.68;;;3.80;;
48052;SDS011;33824;51.600;5.718;2023-07-13T07:51:49;11.10;;;4.05;;
48052;SDS011;33824;51.600;5.718;2023-07-13T07:54:15;15.68;;;3.85;;
48052;SDS011;33824;51.600;5.718;2023-07-13T07:56:41;8.15;;;3.50;;
48052;SDS011;33824;51.600;5.718;2023-07-13T07:59:07;10.13;;;3.45;;
48052;SDS011;33824;51.600;5.718;2023-07-13T08:01:33;8.88;;;3.70;;
48052;SDS011;33824;51.600;5.718;2023-07-13T08:03:58;10.63;;;3.67;;
48052;SDS011;33824;51.600;5.718;2023-07-13T08:06:24;15.77;;;4.35;;
48052;SDS011;33824;51.600;5.718;2023-07-13T08:08:50;9.75;;;3.60;;
48052;SDS011;33824;51.600;5.718;2023-07-13T08:11:16;7.50;;;3.42;;
48052;SDS011;33824;51.600;5.718;2023-07-13T08:13:42;17.90;;;4.10;;
48052;SDS011;33824;51.600;5.718;2023-07-13T08:16:08;6.40;;;3.15;;
48052;SDS011;33824;51.600;5.718;2023-07-13T08:18:33;11.00;;;3.90;;
48052;SDS011;33824;51.600;5.718;2023-07-13T08:21:03;9.18;;;3.70;;
48052;SDS011;33824;51.600;5.718;2023-07-13T08:23:29;9.43;;;3.47;;
48052;SDS011;33824;51.600;5.718;2023-07-13T08:25:55;11.02;;;3.45;;
48052;SDS011;33824;51.600;5.718;2023-07-13T08:28:21;8.30;;;3.20;;
48052;SDS011;33824;51.600;5.718;2023-07-13T08:30:48;12.23;;;4.05;;
48052;SDS011;33824;51.600;5.718;2023-07-13T08:33:21;12.23;;;3.85;;
48052;SDS011;33824;51.600;5.718;2023-07-13T08:35:49;9.48;;;2.92;;
48052;SDS011;33824;51.600;5.718;2023-07-13T08:38:15;7.53;;;2.60;;
48052;SDS011;33824;51.600;5.718;2023-07-13T08:40:41;8.38;;;3.35;;
48052;SDS011;33824;51.600;5.718;2023-07-13T08:43:17;10.52;;;3.63;;
48052;SDS011;33824;51.600;5.718;2023-07-13T08:45:46;7.38;;;3.05;;
48052;SDS011;33824;51.600;5.718;2023-07-13T08:48:19;9.25;;;3.05;;
48052;SDS011;33824;51.600;5.718;2023-07-13T08:50:59;4.85;;;2.10;;
48052;SDS011;33824;51.600;5.718;2023-07-13T08:53:49;6.07;;;2.15;;
48052;SDS011;33824;51.600;5.718;2023-07-13T08:56:21;7.83;;;2.20;;
48052;SDS011;33824;51.600;5.718;2023-07-13T08:58:50;3.47;;;2.00;;
48052;SDS011;33824;51.600;5.718;2023-07-13T09:01:47;6.28;;;2.15;;
48052;SDS011;33824;51.600;5.718;2023-07-13T09:04:26;6.43;;;2.17;;
48052;SDS011;33824;51.600;5.718;2023-07-13T09:07:01;5.60;;;2.35;;
48052;SDS011;33824;51.600;5.718;2023-07-13T09:14:49;5.47;;;1.98;;
48052;SDS011;33824;51.600;5.718;2023-07-13T09:17:18;2.50;;;1.70;;
48052;SDS011;33824;51.600;5.718;2023-07-13T09:19:49;4.78;;;1.83;;
48052;SDS011;33824;51.600;5.718;2023-07-13T09:22:21;6.43;;;2.00;;
48052;SDS011;33824;51.600;5.718;2023-07-13T09:24:52;8.02;;;2.00;;
48052;SDS011;33824;51.600;5.718;2023-07-13T09:27:26;8.32;;;2.08;;
48052;SDS011;33824;51.600;5.718;2023-07-13T09:30:02;3.78;;;1.92;;
48052;SDS011;33824;51.600;5.718;2023-07-13T09:32:41;2.60;;;1.52;;
48052;SDS011;33824;51.600;5.718;2023-07-13T09:35:11;8.13;;;1.98;;
48052;SDS011;33824;51.600;5.718;2023-07-13T09:37:38;5.75;;;2.00;;
48052;SDS011;33824;51.600;5.718;2023-07-13T09:40:05;7.30;;;2.30;;
48052;SDS011;33824;51.600;5.718;2023-07-13T09:42:38;8.00;;;1.80;;
48052;SDS011;33824;51.600;5.718;2023-07-13T09:45:04;7.85;;;1.90;;
48052;SDS011;33824;51.600;5.718;2023-07-13T09:47:38;4.88;;;2.03;;
48052;SDS011;33824;51.600;5.718;2023-07-13T09:50:10;4.90;;;1.60;;
48052;SDS011;33824;51.600;5.718;2023-07-13T09:52:48;3.38;;;1.60;;
48052;SDS011;33824;51.600;5.718;2023-07-13T09:55:23;8.15;;;1.95;;
48052;SDS011;33824;51.600;5.718;2023-07-13T09:57:49;5.25;;;2.10;;
48052;SDS011;33824;51.600;5.718;2023-07-13T10:00:21;4.20;;;1.90;;
48052;SDS011;33824;51.600;5.718;2023-07-13T10:03:02;6.85;;;1.55;;
48052;SDS011;33824;51.600;5.718;2023-07-13T10:05:36;5.03;;;1.73;;
48052;SDS011;33824;51.600;5.718;2023-07-13T10:08:03;3.05;;;1.80;;
48052;SDS011;33824;51.600;5.718;2023-07-13T10:10:28;5.95;;;1.80;;
48052;SDS011;33824;51.600;5.718;2023-07-13T10:12:54;3.17;;;1.48;;
48052;SDS011;33824;51.600;5.718;2023-07-13T10:15:23;7.15;;;2.00;;
48052;SDS011;33824;51.600;5.718;2023-07-13T10:17:51;3.80;;;1.88;;
48052;SDS011;33824;51.600;5.718;2023-07-13T10:20:20;5.47;;;1.70;;
48052;SDS011;33824;51.600;5.718;2023-07-13T10:28:00;3.30;;;1.40;;
48052;SDS011;33824;51.600;5.718;2023-07-13T10:30:46;3.17;;;1.70;;
48052;SDS011;33824;51.600;5.718;2023-07-13T10:33:14;3.33;;;1.80;;
48052;SDS011;33824;51.600;5.718;2023-07-13T10:35:40;3.85;;;1.40;;
48052;SDS011;33824;51.600;5.718;2023-07-13T10:38:17;5.65;;;1.33;;
48052;SDS011;33824;51.600;5.718;2023-07-13T10:43:38;5.30;;;1.63;;
48052;SDS011;33824;51.600;5.718;2023-07-13T10:46:08;5.13;;;1.65;;
48052;SDS011;33824;51.600;5.718;2023-07-13T10:48:39;7.82;;;1.58;;
48052;SDS011;33824;51.600;5.718;2023-07-13T10:51:07;4.53;;;1.50;;
48052;SDS011;33824;51.600;5.718;2023-07-13T10:53:36;3.80;;;1.23;;
48052;SDS011;33824;51.600;5.718;2023-07-13T10:56:06;3.22;;;1.30;;
48052;SDS011;33824;51.600;5.718;2023-07-13T10:58:48;5.07;;;1.08;;
48052;SDS011;33824;51.600;5.718;2023-07-13T11:01:53;2.85;;;1.10;;
48052;SDS011;33824;51.600;5.718;2023-07-13T11:04:21;1.75;;;1.17;;
48052;SDS011;33824;51.600;5.718;2023-07-13T11:06:52;3.08;;;1.27;;
48052;SDS011;33824;51.600;5.718;2023-07-13T11:09:38;4.65;;;2.35;;
48052;SDS011;33824;51.600;5.718;2023-07-13T11:20:08;2.13;;;0.88;;
48052;SDS011;33824;51.600;5.718;2023-07-13T11:25:21;3.95;;;1.67;;
48052;SDS011;33824;51.600;5.718;2023-07-13T11:28:04;4.57;;;1.25;;
48052;SDS011;33824;51.600;5.718;2023-07-13T11:30:43;5.57;;;1.63;;
48052;SDS011;33824;51.600;5.718;2023-07-13T11:33:22;6.10;;;1.60;;
48052;SDS011;33824;51.600;5.718;2023-07-13T11:35:51;2.55;;;1.30;;
48052;SDS011;33824;51.600;5.718;2023-07-13T11:38:22;4.55;;;1.40;;
48052;SDS011;33824;51.600;5.718;2023-07-13T11:40:54;6.18;;;1.70;;
48052;SDS011;33824;51.600;5.718;2023-07-13T11:43:20;3.22;;;1.40;;
48052;SDS011;33824;51.600;5.718;2023-07-13T11:45:49;7.50;;;1.80;;
48052;SDS011;33824;51.600;5.718;2023-07-13T11:48:22;3.58;;;1.40;;
48052;SDS011;33824;51.600;5.718;2023-07-13T11:50:51;4.60;;;1.77;;
48052;SDS011;33824;51.600;5.718;2023-07-13T11:53:19;4.60;;;2.42;;
48052;SDS011;33824;51.600;5.718;2023-07-13T11:55:45;3.45;;;2.20;;
48052;SDS011;33824;51.600;5.718;2023-07-13T11:58:11;4.68;;;2.10;;
48052;SDS011;33824;51.600;5.718;2023-07-13T12:00:41;6.00;;;1.83;;
48052;SDS011;33824;51.600;5.718;2023-07-13T12:03:07;4.88;;;2.33;;
48052;SDS011;33824;51.600;5.718;2023-07-13T12:05:34;4.10;;;1.65;;
48052;SDS011;33824;51.600;5.718;2023-07-13T12:08:00;3.45;;;1.85;;
48052;SDS011;33824;51.600;5.718;2023-07-13T12:10:36;2.78;;;1.75;;
48052;SDS011;33824;51.600;5.718;2023-07-13T12:13:03;4.43;;;1.70;;
48052;SDS011;33824;51.600;5.718;2023-07-13T12:15:38;7.72;;;2.05;;
48052;SDS011;33824;51.600;5.718;2023-07-13T12:18:12;5.53;;;2.70;;
48052;SDS011;33824;51.600;5.718;2023-07-13T12:20:40;5.20;;;2.53;;
48052;SDS011;33824;51.600;5.718;2023-07-13T12:23:06;6.82;;;2.58;;
48052;SDS011;33824;51.600;5.718;2023-07-13T12:25:53;4.57;;;2.40;;
48052;SDS011;33824;51.600;5.718;2023-07-13T12:28:37;3.42;;;2.13;;
48052;SDS011;33824;51.600;5.718;2023-07-13T12:33:59;4.47;;;1.80;;
48052;SDS011;33824;51.600;5.718;2023-07-13T12:36:31;3.53;;;1.92;;
48052;SDS011;33824;51.600;5.718;2023-07-13T12:39:00;3.65;;;1.50;;
48052;SDS011;33824;51.600;5.718;2023-07-13T12:41:31;3.13;;;1.80;;
48052;SDS011;33824;51.600;5.718;2023-07-13T12:43:58;2.67;;;1.80;;
48052;SDS011;33824;51.600;5.718;2023-07-13T12:46:24;5.10;;;1.60;;
48052;SDS011;33824;51.600;5.718;2023-07-13T12:48:54;4.50;;;1.67;;
48052;SDS011;33824;51.600;5.718;2023-07-13T12:51:26;3.63;;;1.83;;
48052;SDS011;33824;51.600;5.718;2023-07-13T12:53:57;4.28;;;1.60;;
48052;SDS011;33824;51.600;5.718;2023-07-13T12:56:36;7.57;;;1.50;;
48052;SDS011;33824;51.600;5.718;2023-07-13T12:59:03;2.40;;;1.20;;
48052;SDS011;33824;51.600;5.718;2023-07-13T13:01:32;4.22;;;2.30;;
48052;SDS011;33824;51.600;5.718;2023-07-13T13:04:03;3.88;;;1.88;;
48052;SDS011;33824;51.600;5.718;2023-07-13T13:06:32;2.55;;;1.60;;
48052;SDS011;33824;51.600;5.718;2023-07-13T13:09:00;2.60;;;1.38;;
48052;SDS011;33824;51.600;5.718;2023-07-13T13:11:27;4.97;;;1.65;;
48052;SDS011;33824;51.600;5.718;2023-07-13T13:13:54;6.32;;;1.63;;
48052;SDS011;33824;51.600;5.718;2023-07-13T13:18:52;3.83;;;1.92;;
48052;SDS011;33824;51.600;5.718;2023-07-13T13:21:20;6.88;;;2.00;;
48052;SDS011;33824;51.600;5.718;2023-07-13T13:23:46;4.13;;;1.77;;
48052;SDS011;33824;51.600;5.718;2023-07-13T13:26:13;3.13;;;1.42;;
48052;SDS011;33824;51.600;5.718;2023-07-13T13:28:41;3.92;;;1.45;;
48052;SDS011;33824;51.600;5.718;2023-07-13T13:31:10;4.15;;;1.35;;
48052;SDS011;33824;51.600;5.718;2023-07-13T13:33:38;2.72;;;1.33;;
48052;SDS011;33824;51.600;5.718;2023-07-13T13:36:21;3.23;;;1.27;;
48052;SDS011;33824;51.600;5.718;2023-07-13T13:38:48;5.63;;;1.30;;
48052;SDS011;33824;51.600;5.718;2023-07-13T13:41:15;3.58;;;1.58;;
48052;SDS011;33824;51.600;5.718;2023-07-13T13:43:41;3.35;;;1.10;;
48052;SDS011;33824;51.600;5.718;2023-07-13T13:46:18;5.63;;;1.48;;
48052;SDS011;33824;51.600;5.718;2023-07-13T13:48:47;2.88;;;1.25;;
48052;SDS011;33824;51.600;5.718;2023-07-13T13:51:21;4.80;;;1.42;;
48052;SDS011;33824;51.600;5.718;2023-07-13T13:53:48;3.03;;;1.42;;
48052;SDS011;33824;51.600;5.718;2023-07-13T13:56:15;2.47;;;1.40;;
48052;SDS011;33824;51.600;5.718;2023-07-13T13:58:42;2.47;;;1.20;;
48052;SDS011;33824;51.600;5.718;2023-07-13T14:01:18;3.47;;;1.60;;
48052;SDS011;33824;51.600;5.718;2023-07-13T14:03:45;2.10;;;1.30;;
48052;SDS011;33824;51.600;5.718;2023-07-13T14:06:14;3.88;;;1.48;;
48052;SDS011;33824;51.600;5.718;2023-07-13T14:08:41;2.60;;;1.45;;
48052;SDS011;33824;51.600;5.718;2023-07-13T14:11:17;2.65;;;1.60;;
48052;SDS011;33824;51.600;5.718;2023-07-13T14:13:47;4.85;;;1.60;;
48052;SDS011;33824;51.600;5.718;2023-07-13T14:16:16;5.85;;;2.08;;
48052;SDS011;33824;51.600;5.718;2023-07-13T14:18:43;3.67;;;1.35;;
48052;SDS011;33824;51.600;5.718;2023-07-13T14:21:11;4.18;;;1.48;;
48052;SDS011;33824;51.600;5.718;2023-07-13T14:23:39;3.25;;;1.40;;
48052;SDS011;33824;51.600;5.718;2023-07-13T14:26:11;2.38;;;1.48;;
48052;SDS011;33824;51.600;5.718;2023-07-13T14:28:41;1.25;;;1.15;;
48052;SDS011;33824;51.600;5.718;2023-07-13T14:31:09;5.72;;;1.38;;
48052;SDS011;33824;51.600;5.718;2023-07-13T14:33:35;2.95;;;1.50;;
48052;SDS011;33824;51.600;5.718;2023-07-13T14:36:01;7.35;;;1.48;;
48052;SDS011;33824;51.600;5.718;2023-07-13T14:38:28;2.67;;;0.93;;
48052;SDS011;33824;51.600;5.718;2023-07-13T14:40:53;3.22;;;1.52;;
48052;SDS011;33824;51.600;5.718;2023-07-13T14:43:19;2.97;;;1.10;;
48052;SDS011;33824;51.600;5.718;2023-07-13T14:45:48;2.13;;;1.40;;
48052;SDS011;33824;51.600;5.718;2023-07-13T14:48:20;2.47;;;1.50;;
48052;SDS011;33824;51.600;5.718;2023-07-13T14:50:50;4.00;;;1.30;;
48052;SDS011;33824;51.600;5.718;2023-07-13T14:53:19;3.78;;;1.83;;
48052;SDS011;33824;51.600;5.718;2023-07-13T14:55:45;3.17;;;1.40;;
48052;SDS011;33824;51.600;5.718;2023-07-13T14:58:10;1.45;;;1.30;;
48052;SDS011;33824;51.600;5.718;2023-07-13T15:00:36;2.70;;;1.20;;
48052;SDS011;33824;51.600;5.718;2023-07-13T15:03:02;2.90;;;1.20;;
48052;SDS011;33824;51.600;5.718;2023-07-13T15:05:31;2.03;;;1.15;;
48052;SDS011;33824;51.600;5.718;2023-07-13T15:07:58;3.72;;;1.52;;
48052;SDS011;33824;51.600;5.718;2023-07-13T15:10:28;3.25;;;1.10;;
48052;SDS011;33824;51.600;5.718;2023-07-13T15:12:58;1.98;;;1.20;;
48052;SDS011;33824;51.600;5.718;2023-07-13T15:15:27;3.10;;;1.30;;
48052;SDS011;33824;51.600;5.718;2023-07-13T15:17:56;2.15;;;1.30;;
48052;SDS011;33824;51.600;5.718;2023-07-13T15:22:55;2.90;;;1.42;;
48052;SDS011;33824;51.600;5.718;2023-07-13T15:25:25;2.25;;;1.08;;